createdAt,value
2017-03-02T00:00:29.581Z,1001.9
2017-03-02T00:01:32.102Z,1002
2017-03-02T00:03:37.772Z,1002
2017-03-02T00:04:40.003Z,1001.9
2017-03-02T00:05:42.557Z,1001.9
2017-03-02T00:06:45.054Z,1001.9
2017-03-02T00:07:47.736Z,1001.8
2017-03-02T00:08:50.594Z,1001.8
2017-03-02T00:09:52.928Z,1001.8
2017-03-02T00:10:55.471Z,1001.8
2017-03-02T00:11:57.988Z,1001.8
2017-03-02T00:13:00.507Z,1001.8
2017-03-02T00:14:03.267Z,1001.7
2017-03-02T00:15:05.771Z,1001.7
2017-03-02T00:16:08.293Z,1001.7
2017-03-02T00:17:10.801Z,1001.5
2017-03-02T00:18:13.306Z,1001.5
2017-03-02T00:19:16.612Z,1001.4
2017-03-02T00:20:18.610Z,1001.4
2017-03-02T00:21:21.461Z,1001.4
2017-03-02T00:22:23.964Z,1001.3
2017-03-02T00:23:26.481Z,1001.4
2017-03-02T00:24:29.126Z,1001.4
2017-03-02T00:25:31.628Z,1001.3
2017-03-02T00:26:34.143Z,1001.3
2017-03-02T00:27:36.712Z,1001.3
2017-03-02T00:28:39.224Z,1001.3
2017-03-02T00:29:42.154Z,1001.2
2017-03-02T00:30:44.661Z,1001.3
2017-03-02T00:31:47.166Z,1001.3
2017-03-02T00:32:49.676Z,1001.2
2017-03-02T00:33:52.195Z,1001.2
2017-03-02T00:34:54.961Z,1001.2
2017-03-02T00:35:57.468Z,1001.2
2017-03-02T00:36:59.983Z,1001.1
2017-03-02T00:38:02.517Z,1001.1
2017-03-02T00:39:05.033Z,1001.1
2017-03-02T00:40:07.797Z,1001.1
2017-03-02T00:41:10.133Z,1001
2017-03-02T00:42:12.683Z,1001
2017-03-02T00:43:15.198Z,1000.9
2017-03-02T00:44:18.219Z,1000.9
2017-03-02T00:45:21.028Z,1001
2017-03-02T00:46:23.063Z,1001
2017-03-02T00:47:25.972Z,1001
2017-03-02T00:48:28.536Z,1001
2017-03-02T00:49:31.065Z,1000.9
2017-03-02T00:50:33.874Z,1000.9
2017-03-02T00:51:35.872Z,1000.9
2017-03-02T00:52:38.375Z,1000.9
2017-03-02T00:53:41.393Z,1000.9
2017-03-02T00:54:43.900Z,1000.9
2017-03-02T00:55:46.693Z,1000.8
2017-03-02T00:56:48.705Z,1000.8
2017-03-02T00:57:51.706Z,1000.8
2017-03-02T00:58:54.210Z,1000.8
2017-03-02T00:59:56.716Z,1000.8
2017-03-02T01:00:59.580Z,1000.8
2017-03-02T01:02:01.600Z,1000.8
2017-03-02T01:03:04.154Z,1000.8
2017-03-02T01:04:07.183Z,1000.8
2017-03-02T01:05:09.700Z,1000.7
2017-03-02T01:06:12.465Z,1000.7
2017-03-02T01:07:14.483Z,1000.7
2017-03-02T01:08:17.507Z,1000.7
2017-03-02T01:09:19.849Z,1000.6
2017-03-02T01:10:22.351Z,1000.7
2017-03-02T01:11:25.107Z,1000.7
2017-03-02T01:12:27.617Z,1000.7
2017-03-02T01:13:30.144Z,1000.6
2017-03-02T01:14:32.685Z,1000.6
2017-03-02T01:15:35.528Z,1000.6
2017-03-02T01:16:38.282Z,1000.5
2017-03-02T01:17:40.301Z,1000.4
2017-03-02T01:18:42.802Z,1000.4
2017-03-02T01:19:45.859Z,1000.3
2017-03-02T01:20:48.365Z,1000.4
2017-03-02T01:21:51.194Z,1000.3
2017-03-02T01:22:53.113Z,1000.4
2017-03-02T01:23:56.119Z,1000.3
2017-03-02T01:24:58.655Z,1000.3
2017-03-02T01:26:01.159Z,1000.3
2017-03-02T01:27:03.972Z,1000.3
2017-03-02T01:29:08.888Z,1000.2
2017-03-02T01:30:11.394Z,1000.2
2017-03-02T01:31:13.728Z,1000.2
2017-03-02T01:32:16.981Z,1000.2
2017-03-02T01:33:18.993Z,1000.1
2017-03-02T01:34:21.498Z,1000.2
2017-03-02T01:35:24.501Z,1000.1
2017-03-02T01:36:27.024Z,1000.1
2017-03-02T01:37:29.793Z,1000.1
2017-03-02T01:38:32.198Z,1000
2017-03-02T01:39:34.707Z,1000
2017-03-02T01:40:37.214Z,1000
2017-03-02T01:41:39.720Z,1000
2017-03-02T01:42:42.533Z,999.9
2017-03-02T01:43:45.034Z,999.9
2017-03-02T01:44:47.549Z,999.9
2017-03-02T01:45:49.951Z,999.8
2017-03-02T01:46:52.465Z,999.8
2017-03-02T01:47:55.219Z,999.7
2017-03-02T01:48:57.731Z,999.8
2017-03-02T01:50:00.247Z,999.7
2017-03-02T01:51:02.749Z,999.7
2017-03-02T01:52:05.762Z,999.7
2017-03-02T01:53:08.520Z,999.7
2017-03-02T01:54:10.581Z,999.7
2017-03-02T01:55:13.420Z,999.6
2017-03-02T01:56:15.977Z,999.6
2017-03-02T01:57:18.474Z,999.6
2017-03-02T01:58:21.224Z,999.6
2017-03-02T01:59:23.725Z,999.5
2017-03-02T02:00:26.227Z,999.4
2017-03-02T02:01:28.742Z,999.5
2017-03-02T02:02:31.300Z,999.5
2017-03-02T02:03:34.065Z,999.5
2017-03-02T02:04:36.574Z,999.4
2017-03-02T02:05:39.101Z,999.5
2017-03-02T02:06:41.660Z,999.4
2017-03-02T02:07:44.167Z,999.4
2017-03-02T02:08:46.925Z,999.4
2017-03-02T02:09:49.428Z,999.4
2017-03-02T02:11:54.359Z,999.4
2017-03-02T02:12:57.201Z,999.3
2017-03-02T02:14:00.098Z,999.3
2017-03-02T02:15:02.157Z,999.2
2017-03-02T02:16:04.668Z,999.2
2017-03-02T02:17:07.580Z,999.2
2017-03-02T02:18:10.083Z,999.2
2017-03-02T02:19:12.895Z,999.2
2017-03-02T02:20:15.418Z,999.1
2017-03-02T02:21:17.916Z,999.2
2017-03-02T02:22:20.424Z,999.2
2017-03-02T02:23:22.974Z,999.2
2017-03-02T02:24:25.731Z,999.2
2017-03-02T02:25:28.242Z,999.1
2017-03-02T02:26:30.745Z,999.1
2017-03-02T02:27:33.265Z,999.1
2017-03-02T02:28:35.782Z,999.1
2017-03-02T02:29:38.537Z,999.1
2017-03-02T02:30:41.048Z,999.1
2017-03-02T02:31:43.467Z,999
2017-03-02T02:32:45.993Z,999.1
2017-03-02T02:33:48.834Z,999
2017-03-02T02:34:51.669Z,999
2017-03-02T02:35:53.680Z,999.1
2017-03-02T02:36:56.542Z,999.1
2017-03-02T02:37:59.068Z,999.1
2017-03-02T02:39:01.567Z,999.1
2017-03-02T02:40:04.670Z,999.1
2017-03-02T02:41:06.682Z,999.1
2017-03-02T02:42:09.529Z,999.1
2017-03-02T02:43:12.050Z,999
2017-03-02T02:44:14.568Z,999
2017-03-02T02:45:17.335Z,999
2017-03-02T02:46:19.666Z,999
2017-03-02T02:47:22.203Z,999
2017-03-02T02:48:25.057Z,999
2017-03-02T02:49:27.617Z,999
2017-03-02T02:50:30.427Z,999
2017-03-02T02:51:32.434Z,999
2017-03-02T02:53:37.849Z,999
2017-03-02T02:54:40.369Z,999
2017-03-02T02:55:43.175Z,998.9
2017-03-02T02:56:45.690Z,998.9
2017-03-02T02:57:48.228Z,999
2017-03-02T02:58:50.563Z,998.9
2017-03-02T02:59:53.068Z,999
2017-03-02T03:00:56.347Z,999
2017-03-02T03:01:58.359Z,999
2017-03-02T03:03:00.905Z,999
2017-03-02T03:04:03.753Z,999
2017-03-02T03:05:06.264Z,998.9
2017-03-02T03:06:09.027Z,998.9
2017-03-02T03:07:11.530Z,998.9
2017-03-02T03:08:14.033Z,998.9
2017-03-02T03:09:16.551Z,998.9
2017-03-02T03:11:22.119Z,998.9
2017-03-02T03:12:24.461Z,998.9
2017-03-02T03:13:26.970Z,998.9
2017-03-02T03:14:29.366Z,998.9
2017-03-02T03:16:34.870Z,998.9
2017-03-02T03:17:37.374Z,998.8
2017-03-02T03:18:39.929Z,998.9
2017-03-02T03:19:42.443Z,998.9
2017-03-02T03:20:44.950Z,999
2017-03-02T03:21:47.723Z,998.9
2017-03-02T03:22:50.268Z,998.9
2017-03-02T03:23:52.601Z,998.9
2017-03-02T03:24:55.111Z,998.9
2017-03-02T03:25:57.613Z,998.8
2017-03-02T03:27:00.910Z,998.8
2017-03-02T03:28:02.920Z,998.9
2017-03-02T03:29:05.434Z,998.8
2017-03-02T03:30:07.985Z,998.8
2017-03-02T03:31:10.866Z,998.8
2017-03-02T03:32:13.671Z,998.8
2017-03-02T03:33:16.177Z,998.8
2017-03-02T03:34:18.471Z,998.8
2017-03-02T03:35:21.262Z,998.8
2017-03-02T03:36:23.542Z,998.8
2017-03-02T03:37:26.752Z,998.8
2017-03-02T03:38:29.091Z,998.7
2017-03-02T03:39:31.578Z,998.8
2017-03-02T03:40:34.032Z,998.8
2017-03-02T03:41:36.525Z,998.8
2017-03-02T03:42:39.231Z,998.8
2017-03-02T03:44:44.604Z,998.8
2017-03-02T03:45:47.053Z,998.8
2017-03-02T03:46:49.510Z,998.9
2017-03-02T03:47:52.562Z,998.9
2017-03-02T03:48:54.531Z,998.8
2017-03-02T03:49:57.340Z,998.8
2017-03-02T03:50:59.813Z,998.8
2017-03-02T03:53:05.546Z,998.8
2017-03-02T03:54:07.832Z,998.8
2017-03-02T03:55:10.295Z,998.8
2017-03-02T03:56:12.748Z,998.8
2017-03-02T03:57:15.214Z,998.8
2017-03-02T03:58:18.424Z,998.8
2017-03-02T03:59:20.384Z,998.8
2017-03-02T04:00:23.345Z,998.8
2017-03-02T04:01:25.630Z,998.7
2017-03-02T04:02:28.418Z,998.7
2017-03-02T04:03:31.128Z,998.8
2017-03-02T04:04:33.588Z,998.7
2017-03-02T04:05:35.886Z,998.8
2017-03-02T04:06:38.857Z,998.8
2017-03-02T04:07:41.311Z,998.8
2017-03-02T04:08:44.069Z,998.8
2017-03-02T04:09:46.523Z,998.9
2017-03-02T04:10:48.991Z,998.8
2017-03-02T04:11:51.441Z,998.8
2017-03-02T04:12:54.406Z,998.8
2017-03-02T04:13:57.195Z,998.8
2017-03-02T04:14:59.172Z,998.8
2017-03-02T04:17:04.541Z,998.9
2017-03-02T04:18:06.997Z,998.8
2017-03-02T04:19:10.037Z,998.9
2017-03-02T04:20:12.339Z,998.9
2017-03-02T04:21:14.806Z,998.9
2017-03-02T04:22:17.288Z,998.8
2017-03-02T04:23:20.249Z,998.8
2017-03-02T04:24:22.959Z,998.9
2017-03-02T04:25:25.441Z,998.9
2017-03-02T04:26:27.961Z,998.9
2017-03-02T04:27:30.434Z,998.9
2017-03-02T04:28:32.924Z,998.9
2017-03-02T04:29:35.630Z,998.9
2017-03-02T04:30:38.093Z,998.9
2017-03-02T04:31:40.550Z,999
2017-03-02T04:33:45.910Z,999
2017-03-02T04:34:48.636Z,998.9
2017-03-02T04:35:50.932Z,998.9
2017-03-02T04:36:53.896Z,998.9
2017-03-02T04:37:56.350Z,998.9
2017-03-02T04:38:58.799Z,998.9
2017-03-02T04:40:01.518Z,998.8
2017-03-02T04:41:03.977Z,998.8
2017-03-02T04:42:06.451Z,998.8
2017-03-02T04:43:09.406Z,998.9
2017-03-02T04:44:11.886Z,998.9
2017-03-02T04:45:14.592Z,998.8
2017-03-02T04:46:17.043Z,998.9
2017-03-02T04:47:19.505Z,998.9
2017-03-02T04:48:21.957Z,998.9
2017-03-02T04:49:24.747Z,998.9
2017-03-02T04:50:27.483Z,998.9
2017-03-02T04:52:32.381Z,999
2017-03-02T04:53:35.018Z,998.9
2017-03-02T04:54:37.480Z,999
2017-03-02T04:55:40.728Z,999
2017-03-02T04:56:42.690Z,999
2017-03-02T04:57:45.674Z,999
2017-03-02T04:58:48.151Z,998.9
2017-03-02T04:59:50.443Z,998.9
2017-03-02T05:00:53.488Z,999
2017-03-02T05:01:55.948Z,999
2017-03-02T05:04:00.861Z,998.8
2017-03-02T05:05:03.324Z,998.9
2017-03-02T05:06:06.589Z,998.8
2017-03-02T05:07:08.778Z,998.9
2017-03-02T05:08:11.574Z,998.9
2017-03-02T05:09:14.031Z,998.8
2017-03-02T05:10:16.506Z,998.8
2017-03-02T05:11:19.211Z,998.8
2017-03-02T05:12:21.671Z,998.9
2017-03-02T05:13:24.124Z,998.9
2017-03-02T05:14:27.080Z,998.9
2017-03-02T05:15:29.539Z,998.9
2017-03-02T05:16:32.329Z,998.9
2017-03-02T05:17:34.807Z,998.9
2017-03-02T05:18:37.263Z,998.9
2017-03-02T05:19:39.759Z,998.9
2017-03-02T05:20:42.212Z,999
2017-03-02T05:21:45.263Z,998.9
2017-03-02T05:22:47.720Z,998.9
2017-03-02T05:23:50.177Z,998.9
2017-03-02T05:24:52.642Z,999
2017-03-02T05:25:55.442Z,998.9
2017-03-02T05:26:58.199Z,999
2017-03-02T05:28:00.648Z,999
2017-03-02T05:29:02.950Z,999
2017-03-02T05:30:05.420Z,999
2017-03-02T05:31:08.396Z,999
2017-03-02T05:32:11.107Z,999.1
2017-03-02T05:33:13.602Z,999.1
2017-03-02T05:34:15.915Z,999.1
2017-03-02T05:35:18.398Z,999
2017-03-02T05:36:21.353Z,999
2017-03-02T05:37:23.893Z,999.1
2017-03-02T05:38:26.347Z,999.1
2017-03-02T05:39:28.805Z,999.1
2017-03-02T05:40:31.271Z,999.2
2017-03-02T05:41:34.230Z,999.2
2017-03-02T05:42:36.764Z,999.2
2017-03-02T05:43:39.217Z,999.2
2017-03-02T05:44:41.667Z,999.2
2017-03-02T05:45:44.633Z,999.3
2017-03-02T05:47:49.744Z,999.3
2017-03-02T05:48:52.200Z,999.3
2017-03-02T05:49:54.988Z,999.3
2017-03-02T05:50:57.455Z,999.3
2017-03-02T05:51:59.910Z,999.4
2017-03-02T05:53:02.627Z,999.4
2017-03-02T05:54:05.095Z,999.4
2017-03-02T05:55:07.549Z,999.4
2017-03-02T05:56:10.517Z,999.4
2017-03-02T05:57:12.981Z,999.4
2017-03-02T05:58:15.695Z,999.4
2017-03-02T05:59:17.982Z,999.4
2017-03-02T06:00:20.451Z,999.3
2017-03-02T06:01:23.421Z,999.4
2017-03-02T06:02:25.875Z,999.4
2017-03-02T06:03:28.585Z,999.3
2017-03-02T06:04:31.041Z,999.4
2017-03-02T06:05:33.527Z,999.4
2017-03-02T06:06:35.982Z,999.5
2017-03-02T06:07:38.956Z,999.4
2017-03-02T06:09:44.143Z,999.5
2017-03-02T06:10:46.759Z,999.5
2017-03-02T06:11:49.211Z,999.4
2017-03-02T06:12:51.665Z,999.4
2017-03-02T06:13:54.497Z,999.4
2017-03-02T06:14:57.219Z,999.4
2017-03-02T06:15:59.672Z,999.5
2017-03-02T06:17:02.130Z,999.5
2017-03-02T06:18:04.595Z,999.5
2017-03-02T06:19:07.549Z,999.5
2017-03-02T06:20:10.316Z,999.5
2017-03-02T06:21:12.320Z,999.5
2017-03-02T06:22:15.295Z,999.6
2017-03-02T06:23:17.606Z,999.6
2017-03-02T06:24:20.247Z,999.7
2017-03-02T06:25:23.039Z,999.8
2017-03-02T06:26:25.501Z,999.9
2017-03-02T06:27:27.967Z,1000.1
2017-03-02T06:28:30.465Z,1000
2017-03-02T06:29:33.419Z,1000
2017-03-02T06:30:35.992Z,1000
2017-03-02T06:31:38.283Z,1000
2017-03-02T06:32:41.244Z,1000.2
2017-03-02T06:33:43.698Z,1000.2
2017-03-02T06:34:45.990Z,1000.3
2017-03-02T06:35:49.210Z,1000.3
2017-03-02T06:36:51.510Z,1000.3
2017-03-02T06:37:53.971Z,1000.3
2017-03-02T06:38:56.758Z,1000.2
2017-03-02T06:39:59.226Z,1000.2
2017-03-02T06:41:01.945Z,1000.2
2017-03-02T06:42:04.427Z,1000.3
2017-03-02T06:44:09.635Z,1000.2
2017-03-02T06:45:12.105Z,1000.3
2017-03-02T06:46:14.807Z,1000.2
2017-03-02T06:47:17.266Z,1000.4
2017-03-02T06:48:19.756Z,1000.4
2017-03-02T06:49:22.554Z,1000.2
2017-03-02T06:50:24.837Z,1000.2
2017-03-02T06:51:28.058Z,1000.1
2017-03-02T06:52:30.362Z,1000.2
2017-03-02T06:53:32.815Z,1000.4
2017-03-02T06:54:35.306Z,1000.3
2017-03-02T06:55:37.811Z,1000.4
2017-03-02T06:56:41.020Z,1000.4
2017-03-02T06:57:42.993Z,1000.3
2017-03-02T06:58:45.453Z,1000.3
2017-03-02T06:59:48.421Z,1000.4
2017-03-02T07:00:50.878Z,1000.4
2017-03-02T07:01:53.584Z,1000.4
2017-03-02T07:02:56.036Z,1000.4
2017-03-02T07:05:01.399Z,1000.4
2017-03-02T07:06:03.853Z,1000.4
2017-03-02T07:07:06.583Z,1000.4
2017-03-02T07:08:09.039Z,1000.4
2017-03-02T07:09:11.498Z,1000.4
2017-03-02T07:10:13.945Z,1000.4
2017-03-02T07:11:16.911Z,1000.5
2017-03-02T07:12:19.457Z,1000.4
2017-03-02T07:14:24.334Z,1000.4
2017-03-02T07:15:27.295Z,1000.6
2017-03-02T07:16:29.754Z,1000.6
2017-03-02T07:18:34.877Z,1000.5
2017-03-02T07:19:37.336Z,1000.6
2017-03-02T07:20:39.823Z,1000.6
2017-03-02T07:21:42.784Z,1000.7
2017-03-02T07:22:45.253Z,1000.7
2017-03-02T07:23:48.012Z,1000.8
2017-03-02T07:24:50.496Z,1000.8
2017-03-02T07:25:52.970Z,1000.8
2017-03-02T07:26:55.425Z,1000.7
2017-03-02T07:27:57.910Z,1000.9
2017-03-02T07:29:01.131Z,1000.8
2017-03-02T07:30:03.088Z,1000.8
2017-03-02T07:31:06.065Z,1000.9
2017-03-02T07:32:08.350Z,1000.8
2017-03-02T07:33:10.800Z,1000.9
2017-03-02T07:34:14.041Z,1000.7
2017-03-02T07:35:15.995Z,1000.9
2017-03-02T07:36:18.972Z,1000.9
2017-03-02T07:38:23.843Z,1001
2017-03-02T07:39:26.618Z,1001
2017-03-02T07:40:29.079Z,1001.1
2017-03-02T07:41:31.533Z,1001.1
2017-03-02T07:42:34.494Z,1001.2
2017-03-02T07:43:36.977Z,1001.1
2017-03-02T07:44:40.022Z,1001.2
2017-03-02T07:45:41.994Z,1001.2
2017-03-02T07:46:44.780Z,1001.3
2017-03-02T07:47:47.251Z,1001.2
2017-03-02T07:48:49.704Z,1001.3
2017-03-02T07:49:52.930Z,1001.3
2017-03-02T07:50:54.884Z,1001.4
2017-03-02T07:51:57.687Z,1001.4
2017-03-02T07:53:00.149Z,1001.4
2017-03-02T07:54:02.960Z,1001.5
2017-03-02T07:55:05.730Z,1001.6
2017-03-02T07:56:08.208Z,1001.6
2017-03-02T07:57:10.509Z,1001.4
2017-03-02T07:59:15.884Z,1001.4
2017-03-02T08:00:18.938Z,1001.6
2017-03-02T08:01:21.390Z,1001.4
2017-03-02T08:02:23.840Z,1001.6
2017-03-02T08:03:26.308Z,1001.5
2017-03-02T08:04:28.781Z,1001.5
2017-03-02T08:05:32.002Z,1001.7
2017-03-02T08:06:33.950Z,1001.6
2017-03-02T08:07:36.742Z,1001.8
2017-03-02T08:08:39.539Z,1001.7
2017-03-02T08:09:42.003Z,1001.7
2017-03-02T08:10:44.781Z,1001.8
2017-03-02T08:11:47.237Z,1001.8
2017-03-02T08:12:49.703Z,1001.9
2017-03-02T08:13:52.512Z,1001.9
2017-03-02T08:14:54.982Z,1001.9
2017-03-02T08:15:58.026Z,1001.9
2017-03-02T08:16:59.991Z,1001.8
2017-03-02T08:18:02.784Z,1001.9
2017-03-02T08:19:05.277Z,1001.8
2017-03-02T08:20:08.250Z,1001.9
2017-03-02T08:21:10.984Z,1001.9
2017-03-02T08:22:13.442Z,1002
2017-03-02T08:23:15.913Z,1002
2017-03-02T08:24:18.540Z,1002.1
2017-03-02T08:25:20.997Z,1002.1
2017-03-02T08:26:24.046Z,1002
2017-03-02T08:27:25.998Z,1002.1
2017-03-02T08:28:28.967Z,1002.1
2017-03-02T08:29:31.426Z,1002.1
2017-03-02T08:30:33.884Z,1002.1
2017-03-02T08:31:36.956Z,1002
2017-03-02T08:32:39.415Z,1002
2017-03-02T08:33:41.866Z,1002
2017-03-02T08:34:44.319Z,1001.9
2017-03-02T08:35:47.119Z,1002
2017-03-02T08:36:49.896Z,1002
2017-03-02T08:37:52.345Z,1002.1
2017-03-02T08:39:57.748Z,1002
2017-03-02T08:41:00.215Z,1002
2017-03-02T08:42:02.925Z,1002
2017-03-02T08:43:05.376Z,1002.1
2017-03-02T08:44:07.850Z,1002.2
2017-03-02T08:45:10.682Z,1002.2
2017-03-02T08:46:13.153Z,1002.1
2017-03-02T08:47:15.920Z,1002.1
2017-03-02T08:48:18.551Z,1002.2
2017-03-02T08:49:21.004Z,1002.1
2017-03-02T08:50:23.622Z,1002
2017-03-02T08:51:26.073Z,1002.1
2017-03-02T08:52:29.337Z,1002.4
2017-03-02T08:53:31.289Z,1002.2
2017-03-02T08:54:33.946Z,1002.2
2017-03-02T08:55:36.400Z,1002.3
2017-03-02T08:56:39.204Z,1002.2
2017-03-02T08:57:41.914Z,1002.3
2017-03-02T08:58:44.367Z,1002.3
2017-03-02T08:59:46.829Z,1002.1
2017-03-02T09:00:49.784Z,1002.3
2017-03-02T09:01:52.254Z,1002.3
2017-03-02T09:02:54.740Z,1002.2
2017-03-02T09:03:57.697Z,1002.3
2017-03-02T09:05:00.192Z,1002.3
2017-03-02T09:06:02.684Z,1002.5
2017-03-02T09:07:05.139Z,1002.4
2017-03-02T09:08:08.435Z,1002.4
2017-03-02T09:09:10.552Z,1002.3
2017-03-02T09:10:13.023Z,1002.5
2017-03-02T09:11:15.981Z,1002.6
2017-03-02T09:12:18.598Z,1002.6
2017-03-02T09:13:21.117Z,1002.5
2017-03-02T09:14:23.581Z,1002.6
2017-03-02T09:15:26.058Z,1002.6
2017-03-02T09:16:29.031Z,1002.6
2017-03-02T09:17:31.482Z,1002.7
2017-03-02T09:18:34.238Z,1002.6
2017-03-02T09:20:39.121Z,1002.6
2017-03-02T09:21:41.598Z,1002.9
2017-03-02T09:22:44.604Z,1002.7
2017-03-02T09:23:47.310Z,1002.8
2017-03-02T09:24:49.772Z,1002.9
2017-03-02T09:25:52.074Z,1003
2017-03-02T09:26:55.044Z,1003
2017-03-02T09:27:57.493Z,1002.9
2017-03-02T09:29:00.204Z,1002.9
2017-03-02T09:30:02.659Z,1003
2017-03-02T09:31:05.294Z,1002.9
2017-03-02T09:32:07.768Z,1003.1
2017-03-02T09:33:10.748Z,1003
2017-03-02T09:35:15.923Z,1003
2017-03-02T09:36:18.220Z,1003.1
2017-03-02T09:37:20.685Z,1003.2
2017-03-02T09:39:26.055Z,1003.2
2017-03-02T09:40:28.758Z,1003.2
2017-03-02T09:41:31.209Z,1003.1
2017-03-02T09:42:34.166Z,1003
2017-03-02T09:43:36.454Z,1003.2
2017-03-02T09:44:39.251Z,1003.2
2017-03-02T09:45:42.031Z,1003.2
2017-03-02T09:46:44.326Z,1003.2
2017-03-02T09:47:46.794Z,1003.3
2017-03-02T09:48:49.773Z,1003.3
2017-03-02T09:49:52.070Z,1003.3
2017-03-02T09:50:55.335Z,1003.4
2017-03-02T09:51:57.637Z,1003.4
2017-03-02T09:53:00.102Z,1003.4
2017-03-02T09:54:02.555Z,1003.4
2017-03-02T09:55:05.025Z,1003.3
2017-03-02T09:56:08.064Z,1003.5
2017-03-02T09:57:10.359Z,1003.3
2017-03-02T09:58:12.813Z,1003.4
2017-03-02T09:59:15.781Z,1003.6
2017-03-02T10:01:21.295Z,1003.5
2017-03-02T10:02:23.264Z,1003.4
2017-03-02T10:03:26.229Z,1003.6
2017-03-02T10:04:28.684Z,1003.8
2017-03-02T10:05:31.505Z,1003.7
2017-03-02T10:06:34.052Z,1003.8
2017-03-02T10:07:36.503Z,1003.7
2017-03-02T10:08:39.319Z,1003.7
2017-03-02T10:09:41.798Z,1004
2017-03-02T10:10:44.270Z,1004.1
2017-03-02T10:11:46.974Z,1004.1
2017-03-02T10:12:49.460Z,1004.3
2017-03-02T10:13:51.951Z,1004.4
2017-03-02T10:14:54.940Z,1004.3
2017-03-02T10:15:57.238Z,1004.3
2017-03-02T10:16:59.988Z,1004.3
2017-03-02T10:18:02.464Z,1004.5
2017-03-02T10:19:04.918Z,1004.4
2017-03-02T10:20:07.881Z,1004.5
2017-03-02T10:21:10.199Z,1004.6
2017-03-02T10:22:13.240Z,1004.7
2017-03-02T10:23:15.690Z,1004.8
2017-03-02T10:24:17.979Z,1005
2017-03-02T10:25:20.941Z,1005
2017-03-02T10:26:23.402Z,1005.1
2017-03-02T10:27:26.136Z,1004.8
2017-03-02T10:28:28.583Z,1004.5
2017-03-02T10:29:31.046Z,1004.6
2017-03-02T10:30:33.510Z,1004.6
2017-03-02T10:31:36.465Z,1004.6
2017-03-02T10:32:39.014Z,1004.7
2017-03-02T10:33:41.513Z,1004.6
2017-03-02T10:34:43.965Z,1004.6
2017-03-02T10:35:46.923Z,1004.6
2017-03-02T10:36:49.212Z,1004.5
2017-03-02T10:38:54.863Z,1004.5
2017-03-02T10:39:56.812Z,1004.5
2017-03-02T10:40:59.800Z,1004.6
2017-03-02T10:42:02.270Z,1004.6
2017-03-02T10:43:04.728Z,1004.5
2017-03-02T10:44:07.769Z,1004.5
2017-03-02T10:45:10.232Z,1004.5
2017-03-02T10:46:12.693Z,1004.5
2017-03-02T10:47:14.982Z,1004.6
2017-03-02T10:48:17.774Z,1004.5
2017-03-02T10:49:20.547Z,1004.6
2017-03-02T10:50:23.032Z,1004.6
2017-03-02T10:52:27.923Z,1004.8
2017-03-02T10:53:30.896Z,1004.8
2017-03-02T10:54:33.433Z,1004.6
2017-03-02T10:55:35.893Z,1004.7
2017-03-02T10:56:38.359Z,1004.8
2017-03-02T10:57:41.150Z,1004.8
2017-03-02T10:58:43.436Z,1004.8
2017-03-02T10:59:46.533Z,1004.8
2017-03-02T11:00:49.036Z,1004.8
2017-03-02T11:01:51.514Z,1004.8
2017-03-02T11:02:53.966Z,1004.9
2017-03-02T11:03:56.755Z,1004.9
2017-03-02T11:04:59.506Z,1004.7
2017-03-02T11:06:02.002Z,1004.9
2017-03-02T11:07:04.459Z,1004.8
2017-03-02T11:08:06.912Z,1004.8
2017-03-02T11:10:12.539Z,1004.9
2017-03-02T11:11:14.677Z,1005
2017-03-02T11:12:17.150Z,1004.9
2017-03-02T11:13:20.115Z,1005
2017-03-02T11:14:22.582Z,1004.9
2017-03-02T11:15:25.295Z,1004.9
2017-03-02T11:16:27.758Z,1004.8
2017-03-02T11:17:30.551Z,1004.9
2017-03-02T11:18:33.003Z,1004.8
2017-03-02T11:19:35.804Z,1004.8
2017-03-02T11:20:38.527Z,1004.9
2017-03-02T11:22:43.424Z,1004.9
2017-03-02T11:23:45.888Z,1004.8
2017-03-02T11:24:48.692Z,1004.9
2017-03-02T11:25:51.004Z,1004.7
2017-03-02T11:26:53.979Z,1005
2017-03-02T11:27:56.268Z,1004.7
2017-03-02T11:28:58.769Z,1004.8
2017-03-02T11:30:01.747Z,1004.9
2017-03-02T11:31:04.488Z,1004.9
2017-03-02T11:32:06.953Z,1004.9
2017-03-02T11:33:09.424Z,1005.1
2017-03-02T11:34:11.889Z,1005
2017-03-02T11:35:14.681Z,1004.9
2017-03-02T11:36:17.468Z,1005
2017-03-02T11:38:22.492Z,1005
2017-03-02T11:39:24.946Z,1005.1
2017-03-02T11:40:27.757Z,1005.1
2017-03-02T11:41:30.484Z,1005.1
2017-03-02T11:42:32.943Z,1005.1
2017-03-02T11:43:35.397Z,1005.1
2017-03-02T11:44:38.354Z,1005.1
2017-03-02T11:45:40.662Z,1005.3
2017-03-02T11:46:43.373Z,1005.2
2017-03-02T11:47:45.683Z,1005.2
2017-03-02T11:48:48.652Z,1005.1
2017-03-02T11:49:51.106Z,1005
2017-03-02T11:50:53.559Z,1005.1
2017-03-02T11:51:56.782Z,1005.1
2017-03-02T11:52:58.737Z,1005.3
2017-03-02T11:54:01.552Z,1005.2
2017-03-02T11:55:04.066Z,1005.1
2017-03-02T11:56:06.875Z,1005.2
2017-03-02T11:57:09.604Z,1005.2
2017-03-02T11:58:12.056Z,1005.2
2017-03-02T11:59:14.845Z,1005.3
2017-03-02T12:00:17.310Z,1005.2
2017-03-02T12:01:19.603Z,1005.3
2017-03-02T12:02:22.812Z,1005.2
2017-03-02T12:03:24.791Z,1005.4
2017-03-02T12:04:27.584Z,1005.4
2017-03-02T12:05:30.034Z,1005.4
2017-03-02T12:06:32.997Z,1005.5
2017-03-02T12:07:35.547Z,1005.5
2017-03-02T12:08:38.002Z,1005.6
2017-03-02T12:10:43.538Z,1005.3
2017-03-02T12:11:45.996Z,1005.5
2017-03-02T12:12:48.770Z,1005.5
2017-03-02T12:14:53.534Z,1005.5
2017-03-02T12:15:56.496Z,1005.6
2017-03-02T12:16:58.953Z,1005.7
2017-03-02T12:18:01.687Z,1005.4
2017-03-02T12:19:04.146Z,1005.6
2017-03-02T12:20:06.619Z,1005.6
2017-03-02T12:21:09.438Z,1005.7
2017-03-02T12:22:11.914Z,1005.7
2017-03-02T12:23:14.619Z,1005.6
2017-03-02T12:24:17.083Z,1005.8
2017-03-02T12:25:19.561Z,1005.6
2017-03-02T12:26:22.542Z,1005.6
2017-03-02T12:27:24.875Z,1005.7
2017-03-02T12:28:28.088Z,1005.7
2017-03-02T12:29:30.370Z,1005.6
2017-03-02T12:30:32.836Z,1005.6
2017-03-02T12:31:35.286Z,1005.7
2017-03-02T12:32:38.242Z,1005.7
2017-03-02T12:33:40.946Z,1005.6
2017-03-02T12:34:43.400Z,1005.7
2017-03-02T12:35:45.688Z,1005.7
2017-03-02T12:36:48.658Z,1005.7
2017-03-02T12:37:51.111Z,1005.7
2017-03-02T12:38:54.148Z,1005.7
2017-03-02T12:39:56.105Z,1005.8
2017-03-02T12:40:59.072Z,1005.8
2017-03-02T12:42:01.369Z,1005.8
2017-03-02T12:43:04.366Z,1005.8
2017-03-02T12:44:07.091Z,1005.8
2017-03-02T12:46:11.779Z,1005.9
2017-03-02T12:47:14.749Z,1005.9
2017-03-02T12:48:17.210Z,1005.9
2017-03-02T12:49:19.912Z,1006
2017-03-02T12:50:22.362Z,1006
2017-03-02T12:51:25.159Z,1005.9
2017-03-02T12:52:27.624Z,1006.2
2017-03-02T12:53:30.139Z,1006
2017-03-02T12:54:33.192Z,1005.7
2017-03-02T12:55:35.502Z,1006.2
2017-03-02T12:56:37.968Z,1005.9
2017-03-02T12:57:40.933Z,1006.3
2017-03-02T12:58:43.401Z,1006.4
2017-03-02T12:59:46.158Z,1006.4
2017-03-02T13:00:48.619Z,1006.3
2017-03-02T13:01:51.073Z,1006.7
2017-03-02T13:02:54.050Z,1006.5
2017-03-02T13:03:56.504Z,1006.5
2017-03-02T13:04:59.209Z,1006.4
2017-03-02T13:06:01.674Z,1006.4
2017-03-02T13:07:04.128Z,1006.6
2017-03-02T13:08:06.613Z,1006.7
2017-03-02T13:09:09.594Z,1006.5
2017-03-02T13:10:12.315Z,1006.6
2017-03-02T13:11:14.766Z,1006.7
2017-03-02T13:12:17.051Z,1006.7
2017-03-02T13:13:20.032Z,1006.8
2017-03-02T13:14:22.320Z,1006.8
2017-03-02T13:15:25.529Z,1006.6
2017-03-02T13:16:27.501Z,1006.6
2017-03-02T13:17:30.298Z,1006.8
2017-03-02T13:18:32.768Z,1006.8
2017-03-02T13:19:35.730Z,1006.8
2017-03-02T13:20:38.450Z,1006.9
2017-03-02T13:23:45.716Z,1007
2017-03-02T13:24:48.685Z,1007
2017-03-02T13:25:51.403Z,1007
2017-03-02T13:26:53.865Z,1007
2017-03-02T13:27:56.336Z,1007
2017-03-02T13:28:58.814Z,1007.3
2017-03-02T13:30:01.767Z,1007.2
2017-03-02T13:31:04.480Z,1007.2
2017-03-02T13:32:06.943Z,1007.3
2017-03-02T13:33:09.391Z,1007.1
2017-03-02T13:34:11.843Z,1007.3
2017-03-02T13:35:14.799Z,1007.1
2017-03-02T13:36:17.571Z,1007.3
2017-03-02T13:38:22.430Z,1007.2
2017-03-02T13:39:24.903Z,1007.3
2017-03-02T13:40:27.352Z,1007.3
2017-03-02T13:41:30.421Z,1007.4
2017-03-02T13:42:32.880Z,1007.4
2017-03-02T13:43:35.164Z,1007.3
2017-03-02T13:44:38.130Z,1007.4
2017-03-02T13:45:40.608Z,1007.3
2017-03-02T13:46:43.313Z,1007.5
2017-03-02T13:47:45.623Z,1007.4
2017-03-02T13:48:48.605Z,1007.5
2017-03-02T13:49:50.889Z,1007.4
2017-03-02T13:50:53.343Z,1007.4
2017-03-02T13:51:56.618Z,1007.4
2017-03-02T13:52:58.569Z,1007.5